Aérodrome :
LOGIN :

S'inscrire | Disclaimer

   EN    FR    IT 

 










Légende :    VFR   VFR Marginal   IFR   IFR Intensif   IFR Très Intensif
Visi : 
Plafond : 
>= 8 km
>= 3000ft
5 à 8 km
1000 à 3000 ft
1500m à 5 km
500 à 1000 ft
800 à 1500m
200 à 500 ft
< 800m
< 200 ft
Symboles :   Orages  Brouillard  Fortes neiges  Fortes précipitations  Vent > 20 kt
SIGMETs :   Divers  Orages  Givrage  Turbulence  Onde Orograph.  Cendres Volcan.






- Altitude de l'aérodrome : 17 ft
- Code IATA : GRQ


EHGG - Groningen Eelde

DERNIER METAR :
  • 301525Z AUTO 35007KT 300V040 9999 NSC 24/18 Q1010 NOSIG

METARs EXPIRÉS :
  • 301455Z AUTO 35008KT 300V030 9999 NSC 24/18 Q1010 NOSIG
  • 301425Z AUTO 34009KT 290V060 9999 NSC 25/18 Q1011 NOSIG
  • 301355Z AUTO 33011KT 270V020 9999 NSC 25/18 Q1011 NOSIG
  • 301325Z AUTO 34010KT 300V020 9999 NSC 26/18 Q1011 NOSIG
  • 301255Z AUTO 28008KT 240V350 9999 BKN046CB 27/16 Q1011 NOSIG

TAF TAF EHGG
Valide du 30 à 12h jusqu'au 01 à 18h UTC


301119Z 3012/0118 33010KT 9999 SCT030
PROB30
TEMPO 3012/3016 VRB15G25KT 2500 TSRAGR FEW020CB
TEMPO 3018/0102 30015G25KT 6000 SHRA RA SCT050CB
PROB30
TEMPO 3018/3021 27020G30KT 2500 TSRAGR SCT020CB
BECMG 3021/3024 27008KT
PROB30
TEMPO 0100/0106 4500 DZRA BKN008
BECMG 0110/0113 24014KT



MET'MAP, la Météo Aéronautique d'un coup d'oeil ! - Copyright ORBIFLY Décembre 2007 - Disclaimer

ORBIFLY MET'MAP TEAM :

Programmation & Développement : Alexandra Zaïnal
Sur une idée originale de : Baudouin d'Aumeries
Soutien technique & logistique : Manuel Goepfert
Assistance : Marc-Olivier Méhu




SOURCES & CREDITS :

   NOAA